Time;durP1;ratioP1;P1;durP2;ratioP2;P2;SDS_P1;SDS_P2;PMS_P1;PMS_P2;Temp;Humidity;BMP_temperature;BMP_pressure;BME280_temperature;BME280_humidity;BME280_pressure;Samples;Min_cycle;Max_cycle;Signal;HPM_P1;HPM_P2
2022/03/12 00:02:11;;;;;;;66.72;31.33;;;;;;;;;;4996771;28;20026;-55
2022/03/12 00:04:37;;;;;;;70.28;31.20;;;;;;;;;;4997228;28;20030;-50
2022/03/12 00:07:11;;;;;;;62.38;27.40;;;;;;;;;;4996648;28;20033;-51
2022/03/12 00:09:37;;;;;;;64.03;27.95;;;;;;;;;;4995132;28;20041;-52
2022/03/12 00:12:04;;;;;;;61.33;26.17;;;;;;;;;;4995147;28;20022;-51
2022/03/12 00:14:32;;;;;;;55.65;26.30;;;;;;;;;;4995678;28;20026;-51
2022/03/12 00:16:58;;;;;;;58.22;25.40;;;;;;;;;;4995372;28;20110;-51
2022/03/12 00:19:24;;;;;;;56.35;24.75;;;;;;;;;;4995457;28;20030;-47
2022/03/12 00:21:50;;;;;;;54.65;25.17;;;;;;;;;;4995338;28;20029;-51
2022/03/12 00:24:18;;;;;;;56.30;26.42;;;;;;;;;;4994811;28;20031;-52
2022/03/12 00:26:50;;;;;;;62.13;27.25;;;;;;;;;;4995736;28;20034;-48
2022/03/12 00:29:16;;;;;;;53.78;24.90;;;;;;;;;;4996414;28;20464;-52
2022/03/12 00:31:43;;;;;;;61.92;29.75;;;;;;;;;;4996029;28;20061;-52
2022/03/12 00:34:10;;;;;;;67.40;30.05;;;;;;;;;;4995060;28;20069;-51
2022/03/12 00:36:36;;;;;;;60.45;26.90;;;;;;;;;;4995729;28;20109;-47
2022/03/12 00:39:02;;;;;;;64.35;30.58;;;;;;;;;;4995483;28;20113;-51
2022/03/12 00:41:29;;;;;;;58.85;26.65;;;;;;;;;;4995036;28;20529;-51
2022/03/12 00:43:55;;;;;;;57.20;28.58;;;;;;;;;;4996157;28;20073;-53
2022/03/12 00:46:22;;;;;;;66.20;31.63;;;;;;;;;;4995966;28;20030;-50
2022/03/12 00:48:48;;;;;;;66.72;31.88;;;;;;;;;;4995268;28;20030;-53
2022/03/12 00:51:15;;;;;;;70.07;33.65;;;;;;;;;;4995600;28;20047;-49
2022/03/12 00:53:41;;;;;;;68.20;34.35;;;;;;;;;;4995712;28;20106;-50
2022/03/12 00:56:08;;;;;;;78.40;37.42;;;;;;;;;;4995828;28;20040;-52
2022/03/12 00:58:35;;;;;;;80.80;37.80;;;;;;;;;;4995615;28;20428;-56
2022/03/12 01:01:02;;;;;;;74.35;33.78;;;;;;;;;;4995389;28;20027;-55
2022/03/12 01:03:28;;;;;;;57.47;27.83;;;;;;;;;;4995917;28;20018;-50
2022/03/12 01:05:58;;;;;;;67.38;31.50;;;;;;;;;;4994553;28;20022;-47
2022/03/12 01:08:26;;;;;;;64.90;30.08;;;;;;;;;;4995814;28;20030;-51
2022/03/12 01:10:52;;;;;;;67.05;31.83;;;;;;;;;;4996101;28;20022;-53
2022/03/12 01:13:20;;;;;;;61.83;28.52;;;;;;;;;;4995668;28;20018;-52
2022/03/12 01:15:47;;;;;;;57.92;24.92;;;;;;;;;;4995527;28;20034;-50
2022/03/12 01:18:14;;;;;;;47.33;22.80;;;;;;;;;;4995373;28;20026;-50
2022/03/12 01:20:40;;;;;;;52.47;23.92;;;;;;;;;;4994984;28;20030;-50
2022/03/12 01:23:07;;;;;;;69.45;30.70;;;;;;;;;;4995911;28;20033;-51
2022/03/12 01:25:33;;;;;;;75.53;32.42;;;;;;;;;;4994440;28;20029;-53
2022/03/12 01:27:59;;;;;;;68.13;29.52;;;;;;;;;;4993454;28;20061;-51
2022/03/12 01:30:27;;;;;;;47.55;22.23;;;;;;;;;;4993599;28;20356;-52
2022/03/12 01:32:54;;;;;;;52.42;24.35;;;;;;;;;;4993260;28;20026;-51
2022/03/12 01:35:20;;;;;;;53.15;24.13;;;;;;;;;;4993783;28;20018;-50
2022/03/12 01:37:46;;;;;;;43.90;21.23;;;;;;;;;;4993788;28;20026;-51
2022/03/12 01:40:13;;;;;;;50.20;22.80;;;;;;;;;;4993541;28;20034;-51
2022/03/12 01:42:42;;;;;;;57.33;26.02;;;;;;;;;;4995134;28;20057;-52
2022/03/12 01:45:09;;;;;;;42.30;21.25;;;;;;;;;;4994869;28;20542;-50
2022/03/12 01:47:36;;;;;;;55.03;25.92;;;;;;;;;;4994843;28;20034;-52
2022/03/12 01:50:03;;;;;;;56.45;25.23;;;;;;;;;;4994512;28;20050;-51
2022/03/12 01:52:30;;;;;;;50.88;25.50;;;;;;;;;;4995062;28;20037;-51
2022/03/12 01:54:57;;;;;;;58.90;26.45;;;;;;;;;;4994608;28;20094;-50
2022/03/12 01:57:23;;;;;;;56.63;26.60;;;;;;;;;;4995554;28;20347;-53
2022/03/12 01:59:50;;;;;;;59.28;26.80;;;;;;;;;;4995410;28;20429;-50
2022/03/12 02:02:17;;;;;;;49.95;25.33;;;;;;;;;;4994576;28;20137;-54
2022/03/12 02:04:51;;;;;;;44.63;21.75;;;;;;;;;;4994411;28;20034;-48
2022/03/12 02:07:17;;;;;;;43.13;20.55;;;;;;;;;;4994662;28;20030;-50
2022/03/12 02:09:44;;;;;;;41.03;17.88;;;;;;;;;;4993706;28;20031;-56
2022/03/12 02:12:11;;;;;;;42.33;19.15;;;;;;;;;;4993875;28;20030;-49
2022/03/12 02:14:38;;;;;;;41.78;19.95;;;;;;;;;;4994330;28;20030;-52
2022/03/12 02:17:11;;;;;;;39.20;18.95;;;;;;;;;;4994341;28;20072;-52
2022/03/12 02:19:39;;;;;;;39.15;18.45;;;;;;;;;;4994573;28;20038;-50
2022/03/12 02:22:05;;;;;;;36.70;17.83;;;;;;;;;;4992935;28;20113;-51
2022/03/12 02:24:32;;;;;;;32.47;16.63;;;;;;;;;;4992446;28;20014;-49
2022/03/12 02:27:00;;;;;;;34.78;16.85;;;;;;;;;;4993571;28;20474;-48
2022/03/12 02:29:27;;;;;;;34.47;16.58;;;;;;;;;;4993920;28;20034;-49
2022/03/12 02:31:58;;;;;;;34.60;17.30;;;;;;;;;;4992630;28;20030;-54
2022/03/12 02:34:29;;;;;;;35.97;16.23;;;;;;;;;;4994087;28;20022;-52
2022/03/12 02:36:56;;;;;;;41.58;18.70;;;;;;;;;;4993965;28;20053;-51
2022/03/12 02:39:24;;;;;;;33.63;16.05;;;;;;;;;;4994355;28;20043;-54
2022/03/12 02:41:50;;;;;;;33.85;15.98;;;;;;;;;;4994380;28;20041;-49
2022/03/12 02:44:22;;;;;;;37.67;18.40;;;;;;;;;;4993281;28;20096;-47
2022/03/12 02:47:08;;;;;;;43.67;20.17;;;;;;;;;;4993016;28;20050;-47
2022/03/12 02:49:38;;;;;;;36.00;17.85;;;;;;;;;;4992394;28;20093;-49
2022/03/12 02:52:05;;;;;;;40.65;19.17;;;;;;;;;;4993654;28;20418;-47
2022/03/12 02:54:31;;;;;;;32.28;16.52;;;;;;;;;;4993984;28;20379;-53
2022/03/12 02:57:00;;;;;;;34.78;16.38;;;;;;;;;;4993511;28;20030;-47
2022/03/12 02:59:26;;;;;;;36.55;17.73;;;;;;;;;;4994188;28;20030;-50
2022/03/12 03:01:57;;;;;;;30.17;15.13;;;;;;;;;;4993112;28;20037;-53
2022/03/12 03:04:25;;;;;;;31.92;15.35;;;;;;;;;;4992807;28;20085;-49
2022/03/12 03:06:51;;;;;;;28.00;14.43;;;;;;;;;;4993219;28;20015;-48
2022/03/12 03:09:17;;;;;;;29.95;14.90;;;;;;;;;;4994052;28;20034;-53
2022/03/12 03:11:44;;;;;;;34.35;16.58;;;;;;;;;;4993456;28;20026;-48
2022/03/12 03:14:12;;;;;;;35.47;16.50;;;;;;;;;;4994220;28;20030;-49
2022/03/12 03:16:39;;;;;;;31.52;15.60;;;;;;;;;;4993877;28;20033;-48
2022/03/12 03:19:06;;;;;;;36.70;16.60;;;;;;;;;;4992780;28;20537;-53
2022/03/12 03:21:34;;;;;;;33.63;16.67;;;;;;;;;;4993636;28;20502;-47
2022/03/12 03:24:00;;;;;;;31.00;16.23;;;;;;;;;;4993051;28;20429;-48
2022/03/12 03:26:38;;;;;;;36.83;16.88;;;;;;;;;;4993373;28;20030;-47
2022/03/12 03:29:08;;;;;;;36.80;16.65;;;;;;;;;;4993581;28;20041;-52
2022/03/12 03:31:34;;;;;;;35.15;15.38;;;;;;;;;;4993290;28;20037;-51
2022/03/12 03:34:01;;;;;;;34.88;15.70;;;;;;;;;;4992461;28;20029;-49
2022/03/12 03:36:27;;;;;;;40.88;16.17;;;;;;;;;;4992978;28;20034;-51
2022/03/12 03:38:53;;;;;;;31.52;16.10;;;;;;;;;;4992670;28;20026;-46
2022/03/12 03:41:19;;;;;;;27.58;14.60;;;;;;;;;;4994078;28;20018;-52
2022/03/12 03:43:46;;;;;;;31.23;15.10;;;;;;;;;;4995740;28;20101;-52
2022/03/12 03:46:16;;;;;;;29.80;13.68;;;;;;;;;;4996818;28;20110;-51
2022/03/12 03:48:42;;;;;;;28.70;13.43;;;;;;;;;;4996621;28;20030;-50
2022/03/12 03:51:09;;;;;;;28.65;14.63;;;;;;;;;;4995819;28;20046;-50
2022/03/12 03:53:35;;;;;;;30.60;14.45;;;;;;;;;;4996414;28;20030;-51
2022/03/12 03:56:02;;;;;;;32.83;15.70;;;;;;;;;;4997526;28;20471;-51
2022/03/12 03:58:30;;;;;;;32.95;15.65;;;;;;;;;;4996888;28;20027;-48
2022/03/12 04:01:00;;;;;;;25.20;13.00;;;;;;;;;;4996792;28;20034;-49
2022/03/12 04:03:32;;;;;;;25.93;14.47;;;;;;;;;;4995447;28;20094;-50
2022/03/12 04:05:59;;;;;;;28.65;14.43;;;;;;;;;;4995441;28;20252;-50
2022/03/12 04:08:25;;;;;;;24.35;13.43;;;;;;;;;;4995575;28;20101;-52
2022/03/12 04:10:51;;;;;;;22.02;11.45;;;;;;;;;;4996932;28;20463;-53
2022/03/12 04:13:21;;;;;;;24.08;11.05;;;;;;;;;;4996996;28;20030;-53
2022/03/12 04:15:48;;;;;;;24.95;13.20;;;;;;;;;;4996815;28;20088;-47
2022/03/12 04:18:21;;;;;;;20.60;9.80;;;;;;;;;;4997282;28;20037;-45
2022/03/12 04:20:48;;;;;;;19.60;10.38;;;;;;;;;;4995505;28;20387;-53
2022/03/12 04:23:18;;;;;;;17.48;9.77;;;;;;;;;;4996435;28;20093;-51
2022/03/12 04:25:45;;;;;;;20.70;9.32;;;;;;;;;;4995806;28;20034;-53
2022/03/12 04:28:11;;;;;;;16.85;9.25;;;;;;;;;;4996045;28;20024;-51
2022/03/12 04:30:38;;;;;;;21.40;10.38;;;;;;;;;;4996045;28;20040;-50
2022/03/12 04:33:05;;;;;;;20.90;10.30;;;;;;;;;;4996103;28;20018;-50
2022/03/12 04:35:32;;;;;;;16.95;9.18;;;;;;;;;;4995824;28;20085;-46
2022/03/12 04:37:58;;;;;;;17.30;9.18;;;;;;;;;;4995335;28;20419;-53
2022/03/12 04:40:26;;;;;;;19.13;9.30;;;;;;;;;;4995668;28;20030;-53
2022/03/12 04:42:52;;;;;;;29.45;12.52;;;;;;;;;;4995684;28;20030;-51
2022/03/12 04:45:20;;;;;;;25.00;11.38;;;;;;;;;;4996505;28;20022;-50
2022/03/12 04:47:48;;;;;;;23.10;9.65;;;;;;;;;;4996212;28;20031;-49
2022/03/12 04:50:14;;;;;;;23.58;10.32;;;;;;;;;;4995492;28;20081;-50
2022/03/12 04:52:44;;;;;;;22.30;10.27;;;;;;;;;;4995241;28;20557;-49
2022/03/12 04:55:12;;;;;;;26.45;10.95;;;;;;;;;;4995457;28;20052;-52
2022/03/12 04:57:39;;;;;;;20.85;10.45;;;;;;;;;;4995989;28;20023;-47
2022/03/12 05:00:06;;;;;;;24.17;11.35;;;;;;;;;;4996316;28;20022;-50
2022/03/12 05:02:32;;;;;;;22.38;10.85;;;;;;;;;;4990593;28;20030;-46
2022/03/12 05:04:58;;;;;;;21.70;10.98;;;;;;;;;;4988657;28;20035;-47
2022/03/12 05:07:26;;;;;;;19.48;9.98;;;;;;;;;;4995899;28;20026;-48
2022/03/12 05:09:53;;;;;;;24.10;10.27;;;;;;;;;;4995362;28;20468;-47
2022/03/12 05:12:23;;;;;;;20.40;10.00;;;;;;;;;;4995484;28;20045;-51
2022/03/12 05:14:50;;;;;;;27.15;11.25;;;;;;;;;;4995643;28;20475;-47
2022/03/12 05:17:18;;;;;;;21.20;9.77;;;;;;;;;;4995385;28;20049;-50
2022/03/12 05:19:45;;;;;;;23.20;10.90;;;;;;;;;;4995636;28;20378;-46
2022/03/12 05:22:11;;;;;;;25.25;12.32;;;;;;;;;;4995292;28;20478;-49
2022/03/12 05:24:37;;;;;;;28.73;13.20;;;;;;;;;;4995359;28;20035;-50
2022/03/12 05:27:06;;;;;;;27.27;12.75;;;;;;;;;;4995606;28;20032;-52
2022/03/12 05:29:34;;;;;;;29.20;13.25;;;;;;;;;;4995320;28;20034;-49
2022/03/12 05:32:00;;;;;;;40.20;17.38;;;;;;;;;;4995176;28;20122;-50
2022/03/12 05:34:27;;;;;;;41.72;19.88;;;;;;;;;;4995320;28;20030;-53
2022/03/12 05:36:53;;;;;;;208.30;83.65;;;;;;;;;;4995399;28;20400;-48
2022/03/12 05:39:20;;;;;;;112.80;49.80;;;;;;;;;;4995096;28;20065;-51
2022/03/12 05:41:48;;;;;;;178.40;77.72;;;;;;;;;;4994980;28;20029;-50
2022/03/12 05:44:15;;;;;;;100.18;44.70;;;;;;;;;;4993805;28;20029;-48
2022/03/12 05:46:42;;;;;;;87.53;36.50;;;;;;;;;;4994422;28;20022;-51
2022/03/12 05:49:09;;;;;;;60.80;29.02;;;;;;;;;;4994471;28;20035;-51
2022/03/12 05:52:14;;;;;;;55.40;26.40;;;;;;;;;;4993706;28;20022;-55
2022/03/12 05:54:41;;;;;;;69.38;29.20;;;;;;;;;;4994874;28;20015;-50
2022/03/12 05:57:07;;;;;;;49.00;19.80;;;;;;;;;;4994664;28;20046;-50
2022/03/12 05:59:33;;;;;;;35.92;17.30;;;;;;;;;;4994581;28;20145;-51
2022/03/12 06:01:59;;;;;;;52.35;22.23;;;;;;;;;;4994945;28;20018;-46
2022/03/12 06:04:26;;;;;;;33.53;16.42;;;;;;;;;;4994858;28;20030;-51
2022/03/12 06:06:53;;;;;;;41.22;18.02;;;;;;;;;;4993970;28;20019;-47
2022/03/12 06:09:19;;;;;;;31.42;13.77;;;;;;;;;;4994737;28;20033;-50
2022/03/12 06:11:46;;;;;;;32.60;14.50;;;;;;;;;;4994787;28;20030;-51
2022/03/12 06:14:15;;;;;;;32.10;15.43;;;;;;;;;;4994388;28;20479;-51
2022/03/12 06:16:45;;;;;;;30.02;15.70;;;;;;;;;;4994722;28;20109;-53
2022/03/12 06:19:11;;;;;;;31.38;14.68;;;;;;;;;;4994796;28;20476;-52
2022/03/12 06:21:37;;;;;;;34.83;14.70;;;;;;;;;;4994297;28;20073;-53
2022/03/12 06:24:03;;;;;;;26.55;12.77;;;;;;;;;;4994488;28;20490;-51
2022/03/12 06:26:35;;;;;;;27.77;12.63;;;;;;;;;;4994528;28;20098;-46
2022/03/12 06:29:03;;;;;;;19.98;10.50;;;;;;;;;;4993719;28;20030;-51
2022/03/12 06:31:31;;;;;;;19.85;10.10;;;;;;;;;;4994413;28;20062;-49
2022/03/12 06:33:58;;;;;;;20.13;10.90;;;;;;;;;;4993671;28;20045;-49
2022/03/12 06:36:25;;;;;;;24.98;10.45;;;;;;;;;;4994315;28;20379;-51
2022/03/12 06:38:52;;;;;;;20.77;10.15;;;;;;;;;;4993956;28;20049;-48
2022/03/12 06:41:19;;;;;;;26.25;12.20;;;;;;;;;;4994024;28;20030;-51
2022/03/12 06:43:46;;;;;;;27.40;13.43;;;;;;;;;;4993868;28;20471;-51
2022/03/12 06:46:14;;;;;;;26.75;14.38;;;;;;;;;;4994606;28;20072;-53
2022/03/12 06:48:42;;;;;;;28.27;13.40;;;;;;;;;;4993666;28;20594;-53
2022/03/12 06:51:10;;;;;;;26.77;13.13;;;;;;;;;;4994408;28;20054;-54
2022/03/12 06:53:37;;;;;;;31.08;13.65;;;;;;;;;;4994294;28;20029;-48
2022/03/12 06:56:03;;;;;;;28.23;13.05;;;;;;;;;;4993844;28;20073;-49
2022/03/12 06:58:30;;;;;;;26.98;12.65;;;;;;;;;;4994271;28;20077;-48
2022/03/12 07:00:56;;;;;;;28.38;12.25;;;;;;;;;;4994320;28;20018;-54
2022/03/12 07:03:22;;;;;;;30.65;12.93;;;;;;;;;;4993600;28;20018;-47
2022/03/12 07:08:30;;;;;;;37.65;19.58;;;;;;;;;;4993707;28;20042;-52
2022/03/12 07:10:57;;;;;;;31.27;16.65;;;;;;;;;;4992423;28;20386;-53
2022/03/12 07:13:23;;;;;;;40.67;18.50;;;;;;;;;;4993503;28;20532;-55
2022/03/12 07:15:50;;;;;;;35.30;18.95;;;;;;;;;;4993403;28;20022;-54
2022/03/12 07:18:16;;;;;;;42.28;21.67;;;;;;;;;;4994987;28;20026;-50
2022/03/12 07:20:43;;;;;;;40.58;21.17;;;;;;;;;;4997354;28;20471;-51
2022/03/12 07:23:09;;;;;;;37.70;19.17;;;;;;;;;;4996779;28;20105;-55
2022/03/12 07:25:35;;;;;;;42.15;21.70;;;;;;;;;;4997859;28;20031;-48
2022/03/12 07:28:01;;;;;;;44.72;20.42;;;;;;;;;;4996637;28;20471;-47
2022/03/12 07:30:28;;;;;;;37.47;18.42;;;;;;;;;;4997016;28;20070;-50
2022/03/12 07:32:54;;;;;;;32.28;18.15;;;;;;;;;;4996711;28;20018;-49
2022/03/12 07:35:21;;;;;;;40.97;21.48;;;;;;;;;;4997679;28;20019;-57
2022/03/12 07:37:49;;;;;;;36.10;18.23;;;;;;;;;;4997220;28;20494;-50
2022/03/12 07:40:16;;;;;;;39.00;21.25;;;;;;;;;;4997263;28;20109;-50
2022/03/12 07:42:42;;;;;;;42.42;21.63;;;;;;;;;;4997364;28;20105;-50
2022/03/12 07:45:10;;;;;;;48.60;22.42;;;;;;;;;;4994623;28;20026;-48
2022/03/12 07:47:36;;;;;;;42.67;21.92;;;;;;;;;;4995831;28;20053;-51
2022/03/12 07:50:05;;;;;;;40.55;22.52;;;;;;;;;;4995655;28;20062;-54
2022/03/12 07:52:31;;;;;;;38.53;20.45;;;;;;;;;;4996615;28;20023;-54
2022/03/12 07:54:57;;;;;;;34.00;19.98;;;;;;;;;;4997045;28;20022;-51
2022/03/12 07:57:28;;;;;;;36.97;19.98;;;;;;;;;;4996859;28;20049;-55
2022/03/12 08:00:28;;;;;;;40.23;19.50;;;;;;;;;;4996792;28;20034;-52
2022/03/12 08:03:05;;;;;;;39.28;21.13;;;;;;;;;;4995990;28;20720;-54
2022/03/12 08:05:35;;;;;;;43.05;21.52;;;;;;;;;;4996197;28;20035;-59
2022/03/12 08:08:04;;;;;;;39.88;21.90;;;;;;;;;;4996566;28;20027;-47
2022/03/12 08:11:24;;;;;;;48.63;23.92;;;;;;;;;;4997441;28;20027;-47
2022/03/12 08:13:18;;;;;;;41.80;22.40;;;;;;;;;;4996111;28;20487;-49
2022/03/12 08:15:45;;;;;;;43.78;23.15;;;;;;;;;;4996823;28;20030;-52
2022/03/12 08:18:11;;;;;;;49.92;23.83;;;;;;;;;;4996517;28;20098;-48
2022/03/12 08:20:38;;;;;;;45.33;25.38;;;;;;;;;;4996318;28;20030;-52
2022/03/12 08:23:05;;;;;;;44.05;23.73;;;;;;;;;;4997053;28;20068;-52
2022/03/12 08:25:31;;;;;;;47.78;23.70;;;;;;;;;;4997186;28;20025;-47
2022/03/12 08:27:58;;;;;;;46.92;22.45;;;;;;;;;;4996318;28;20030;-48
2022/03/12 08:30:24;;;;;;;53.88;27.83;;;;;;;;;;4995213;28;20053;-54
2022/03/12 08:32:52;;;;;;;41.08;20.65;;;;;;;;;;4996083;28;20027;-50
2022/03/12 08:35:18;;;;;;;37.70;21.00;;;;;;;;;;4996411;28;20034;-46
2022/03/12 08:37:45;;;;;;;43.90;18.98;;;;;;;;;;4996458;28;20022;-48
2022/03/12 08:40:14;;;;;;;31.08;16.70;;;;;;;;;;4996148;28;20169;-50
2022/03/12 08:42:40;;;;;;;33.15;18.15;;;;;;;;;;4996240;28;20058;-47
2022/03/12 08:45:08;;;;;;;33.92;18.17;;;;;;;;;;4996038;28;20084;-45
2022/03/12 08:47:35;;;;;;;39.25;16.73;;;;;;;;;;4995614;28;20142;-49
2022/03/12 08:50:01;;;;;;;28.00;14.57;;;;;;;;;;4995845;28;20514;-46
2022/03/12 08:52:28;;;;;;;31.75;17.50;;;;;;;;;;4996088;28;20037;-47
2022/03/12 08:54:54;;;;;;;29.92;16.27;;;;;;;;;;4995717;28;20430;-48
2022/03/12 08:57:20;;;;;;;19.55;10.45;;;;;;;;;;4996300;28;20026;-49
2022/03/12 08:59:47;;;;;;;23.30;13.02;;;;;;;;;;4995653;28;20037;-48
2022/03/12 09:02:13;;;;;;;31.00;15.60;;;;;;;;;;4995521;28;20036;-45
2022/03/12 09:04:39;;;;;;;30.33;16.33;;;;;;;;;;4995950;28;20020;-47
2022/03/12 09:07:05;;;;;;;19.55;10.80;;;;;;;;;;4995965;28;20029;-50
2022/03/12 09:09:32;;;;;;;18.50;9.07;;;;;;;;;;4995496;28;20390;-49
2022/03/12 09:11:58;;;;;;;27.13;13.57;;;;;;;;;;4996046;28;20118;-47
2022/03/12 09:14:24;;;;;;;25.70;13.23;;;;;;;;;;4995764;28;20371;-45
2022/03/12 09:16:50;;;;;;;20.60;11.80;;;;;;;;;;4994318;28;20030;-45
2022/03/12 09:19:17;;;;;;;25.50;13.70;;;;;;;;;;4995350;28;20046;-46
2022/03/12 09:21:43;;;;;;;24.60;13.48;;;;;;;;;;4995124;28;20046;-51
2022/03/12 09:24:11;;;;;;;24.40;12.45;;;;;;;;;;4995967;28;20435;-46
2022/03/12 09:26:37;;;;;;;21.30;10.68;;;;;;;;;;4995594;28;20057;-45
2022/03/12 09:29:03;;;;;;;20.55;11.25;;;;;;;;;;4994861;28;20088;-48
2022/03/12 09:31:30;;;;;;;21.55;12.02;;;;;;;;;;4995508;28;20038;-47
2022/03/12 09:33:56;;;;;;;24.25;11.40;;;;;;;;;;4995052;28;20411;-47
2022/03/12 09:36:22;;;;;;;25.52;11.88;;;;;;;;;;4995089;28;20058;-45
2022/03/12 09:38:48;;;;;;;20.35;11.75;;;;;;;;;;4995258;28;20065;-49
2022/03/12 09:41:14;;;;;;;21.58;11.00;;;;;;;;;;4995121;28;20026;-47
2022/03/12 09:43:41;;;;;;;20.20;10.95;;;;;;;;;;4994790;28;20019;-47
2022/03/12 09:46:07;;;;;;;18.92;11.15;;;;;;;;;;4995401;28;20379;-46
2022/03/12 09:48:33;;;;;;;24.73;13.52;;;;;;;;;;4993723;28;20028;-46
2022/03/12 09:51:01;;;;;;;29.58;12.35;;;;;;;;;;4993729;28;20101;-45
2022/03/12 09:53:27;;;;;;;25.15;11.85;;;;;;;;;;4994400;28;20395;-48
2022/03/12 09:55:53;;;;;;;19.48;10.20;;;;;;;;;;4994634;28;20023;-45
2022/03/12 09:58:20;;;;;;;17.92;10.60;;;;;;;;;;4994126;28;20026;-46
2022/03/12 10:00:47;;;;;;;21.13;11.27;;;;;;;;;;4994917;28;20035;-45
2022/03/12 10:03:13;;;;;;;21.20;10.80;;;;;;;;;;4995209;28;20098;-47
2022/03/12 10:05:39;;;;;;;19.63;10.55;;;;;;;;;;4994506;28;20022;-46
2022/03/12 10:08:05;;;;;;;20.45;10.50;;;;;;;;;;4994696;28;20093;-47
2022/03/12 10:10:32;;;;;;;20.48;10.25;;;;;;;;;;4994752;28;20537;-46
2022/03/12 10:12:58;;;;;;;17.50;10.00;;;;;;;;;;4993996;28;20038;-49
2022/03/12 10:15:24;;;;;;;25.77;10.52;;;;;;;;;;4994275;28;20031;-50
2022/03/12 10:17:51;;;;;;;18.17;10.23;;;;;;;;;;4994386;28;20021;-48
2022/03/12 10:20:17;;;;;;;17.27;9.77;;;;;;;;;;4994408;28;20030;-45
2022/03/12 10:22:45;;;;;;;16.70;8.55;;;;;;;;;;4994605;28;20174;-46
2022/03/12 10:25:12;;;;;;;12.90;8.27;;;;;;;;;;4993925;28;20050;-47
2022/03/12 10:27:39;;;;;;;20.45;12.43;;;;;;;;;;4994164;28;20027;-48
2022/03/12 10:30:06;;;;;;;23.17;12.25;;;;;;;;;;4994364;28;20030;-47
2022/03/12 10:32:38;;;;;;;30.42;15.88;;;;;;;;;;4994629;28;20049;-47
2022/03/12 10:35:05;;;;;;;19.30;11.65;;;;;;;;;;4994487;28;20056;-47
2022/03/12 10:37:33;;;;;;;17.45;9.52;;;;;;;;;;4993680;28;20018;-48
2022/03/12 10:40:06;;;;;;;17.77;8.98;;;;;;;;;;4993760;28;20030;-50
2022/03/12 10:42:33;;;;;;;13.73;8.40;;;;;;;;;;4994305;28;20115;-48
2022/03/12 10:45:12;;;;;;;15.63;9.02;;;;;;;;;;4994387;28;20435;-47
2022/03/12 10:47:40;;;;;;;15.30;8.95;;;;;;;;;;4993743;28;20487;-50
2022/03/12 10:50:08;;;;;;;17.10;9.65;;;;;;;;;;4994036;28;20061;-51
2022/03/12 10:52:41;;;;;;;17.38;9.73;;;;;;;;;;4993788;28;20050;-48
2022/03/12 10:55:11;;;;;;;12.57;8.02;;;;;;;;;;4994065;28;20034;-50
2022/03/12 10:57:38;;;;;;;12.23;7.18;;;;;;;;;;4994425;28;20065;-46
2022/03/12 11:00:09;;;;;;;20.85;12.85;;;;;;;;;;4993901;28;20049;-49
2022/03/12 11:02:36;;;;;;;19.60;11.85;;;;;;;;;;4994392;28;20101;-48
2022/03/12 11:05:04;;;;;;;19.08;10.38;;;;;;;;;;4994437;28;20019;-50
2022/03/12 11:07:30;;;;;;;18.23;10.02;;;;;;;;;;4993534;28;20505;-48
2022/03/12 11:09:57;;;;;;;19.73;9.88;;;;;;;;;;4993716;28;20069;-46
2022/03/12 11:12:30;;;;;;;14.48;9.80;;;;;;;;;;4994417;28;20091;-49
2022/03/12 11:15:06;;;;;;;18.00;9.77;;;;;;;;;;4993629;28;20026;-50
2022/03/12 11:17:41;;;;;;;14.90;9.02;;;;;;;;;;4993967;28;20022;-49
2022/03/12 11:20:07;;;;;;;15.18;10.32;;;;;;;;;;4993913;28;20543;-48
2022/03/12 11:22:34;;;;;;;15.25;9.95;;;;;;;;;;4993937;28;20034;-46
2022/03/12 11:25:00;;;;;;;20.15;13.43;;;;;;;;;;4992717;28;20076;-50
2022/03/12 11:27:31;;;;;;;18.13;10.75;;;;;;;;;;4994317;28;20125;-51
2022/03/12 11:30:20;;;;;;;22.70;14.05;;;;;;;;;;4993536;28;20031;-52
2022/03/12 11:32:48;;;;;;;28.65;15.07;;;;;;;;;;4993866;28;20553;-51
2022/03/12 11:35:17;;;;;;;24.98;18.05;;;;;;;;;;4993427;28;20031;-50
2022/03/12 11:37:43;;;;;;;16.13;10.07;;;;;;;;;;4993768;28;20489;-51
2022/03/12 11:40:13;;;;;;;20.45;12.68;;;;;;;;;;4994036;28;20026;-49
2022/03/12 11:42:41;;;;;;;14.48;9.75;;;;;;;;;;4993430;28;20025;-53
2022/03/12 11:45:09;;;;;;;17.63;10.02;;;;;;;;;;4993488;28;20034;-51
2022/03/12 11:47:40;;;;;;;19.67;14.70;;;;;;;;;;4993350;28;20030;-49
2022/03/12 11:50:10;;;;;;;18.42;12.77;;;;;;;;;;4993304;28;20457;-47
2022/03/12 11:52:36;;;;;;;14.60;9.25;;;;;;;;;;4993690;28;20022;-51
2022/03/12 11:55:05;;;;;;;14.60;9.63;;;;;;;;;;4993731;28;20045;-52
2022/03/12 11:57:34;;;;;;;15.30;10.27;;;;;;;;;;4993519;28;20027;-52
2022/03/12 12:00:01;;;;;;;20.83;13.38;;;;;;;;;;4993766;28;20062;-47
2022/03/12 12:02:30;;;;;;;18.02;11.05;;;;;;;;;;4993446;28;20030;-50
2022/03/12 12:04:58;;;;;;;16.27;11.55;;;;;;;;;;4994092;28;20058;-52
2022/03/12 12:07:24;;;;;;;15.40;11.07;;;;;;;;;;4993413;28;20054;-49
2022/03/12 12:09:51;;;;;;;15.43;10.70;;;;;;;;;;4996368;28;20084;-51
2022/03/12 12:12:19;;;;;;;17.58;9.98;;;;;;;;;;4982121;28;20039;-48
2022/03/12 12:14:46;;;;;;;17.65;10.95;;;;;;;;;;4979448;28;20045;-49
2022/03/12 12:17:12;;;;;;;15.40;10.00;;;;;;;;;;4996603;28;20018;-51
2022/03/12 12:19:38;;;;;;;16.13;10.25;;;;;;;;;;4997012;28;20030;-48
2022/03/12 12:22:07;;;;;;;19.27;11.98;;;;;;;;;;4996878;28;20022;-48
2022/03/12 12:24:36;;;;;;;30.45;16.20;;;;;;;;;;4987019;28;20390;-48
2022/03/12 12:27:09;;;;;;;20.23;12.32;;;;;;;;;;4977264;28;20027;-55
2022/03/12 12:29:45;;;;;;;15.77;10.93;;;;;;;;;;4977204;28;20058;-50
2022/03/12 12:32:12;;;;;;;13.85;9.63;;;;;;;;;;4993654;28;20032;-55
2022/03/12 12:34:57;;;;;;;15.65;10.43;;;;;;;;;;4996299;28;20053;-50
2022/03/12 12:37:39;;;;;;;14.65;9.93;;;;;;;;;;4997095;28;20141;-50
2022/03/12 12:40:23;;;;;;;15.63;10.15;;;;;;;;;;4996017;28;20027;-54
2022/03/12 12:42:51;;;;;;;20.05;13.20;;;;;;;;;;4996615;28;20379;-48
2022/03/12 12:45:21;;;;;;;16.55;12.45;;;;;;;;;;4996070;28;20030;-52
2022/03/12 12:47:48;;;;;;;22.83;13.93;;;;;;;;;;4996486;28;20030;-47
2022/03/12 12:50:40;;;;;;;23.38;16.60;;;;;;;;;;4995775;28;20081;-51
2022/03/12 12:53:14;;;;;;;19.88;13.73;;;;;;;;;;4993083;28;20035;-48
2022/03/12 12:55:41;;;;;;;15.68;10.65;;;;;;;;;;4996052;28;20014;-50
2022/03/12 12:58:07;;;;;;;29.13;19.15;;;;;;;;;;4996067;28;20471;-47
2022/03/12 13:00:33;;;;;;;18.20;12.73;;;;;;;;;;4995599;28;20066;-46
2022/03/12 13:03:00;;;;;;;17.95;12.88;;;;;;;;;;4995707;28;20022;-50
2022/03/12 13:05:46;;;;;;;18.42;13.05;;;;;;;;;;4995996;28;20022;-52
2022/03/12 13:08:14;;;;;;;19.88;13.00;;;;;;;;;;4995675;28;20018;-52
2022/03/12 13:10:41;;;;;;;21.95;14.80;;;;;;;;;;4995723;28;20022;-47
2022/03/12 13:13:15;;;;;;;16.52;11.65;;;;;;;;;;4994392;28;20100;-52
2022/03/12 13:15:44;;;;;;;17.38;13.77;;;;;;;;;;4995753;28;20021;-52
2022/03/12 13:18:19;;;;;;;16.90;12.50;;;;;;;;;;4994329;28;20387;-48
2022/03/12 13:20:49;;;;;;;17.15;11.52;;;;;;;;;;4993874;28;20475;-53
2022/03/12 13:23:17;;;;;;;21.23;15.18;;;;;;;;;;4995116;28;20030;-51
2022/03/12 13:25:47;;;;;;;24.98;16.42;;;;;;;;;;4995413;28;20371;-49
2022/03/12 13:28:14;;;;;;;17.73;12.73;;;;;;;;;;4995009;28;20029;-47
2022/03/12 13:30:41;;;;;;;18.13;12.32;;;;;;;;;;4995479;28;20089;-50
2022/03/12 13:33:10;;;;;;;16.67;11.32;;;;;;;;;;4995233;28;20037;-49
2022/03/12 13:35:36;;;;;;;19.50;14.27;;;;;;;;;;4995105;28;20028;-52
2022/03/12 13:38:03;;;;;;;18.83;12.98;;;;;;;;;;4995658;28;20041;-50
2022/03/12 13:40:30;;;;;;;18.70;14.05;;;;;;;;;;4996065;28;20030;-51
2022/03/12 13:42:57;;;;;;;22.60;14.07;;;;;;;;;;4995022;28;20029;-48
2022/03/12 13:45:24;;;;;;;17.73;11.50;;;;;;;;;;4995130;28;20109;-51
2022/03/12 13:47:54;;;;;;;16.10;11.38;;;;;;;;;;4994729;28;20031;-51
2022/03/12 13:50:21;;;;;;;50.08;27.75;;;;;;;;;;4995116;28;20070;-51
2022/03/12 13:53:14;;;;;;;18.42;12.15;;;;;;;;;;4995102;28;20027;-48
2022/03/12 13:55:43;;;;;;;17.73;11.98;;;;;;;;;;4992763;28;20042;-47
2022/03/12 13:58:10;;;;;;;16.48;10.63;;;;;;;;;;4995008;28;20113;-52
2022/03/12 14:00:37;;;;;;;17.30;10.40;;;;;;;;;;4995250;28;20034;-53
2022/03/12 14:03:03;;;;;;;14.85;10.05;;;;;;;;;;4994645;28;20014;-52
2022/03/12 14:05:40;;;;;;;15.15;10.20;;;;;;;;;;4994867;28;20057;-46
2022/03/12 14:08:23;;;;;;;19.25;14.30;;;;;;;;;;4995497;28;20109;-53
2022/03/12 14:10:50;;;;;;;18.80;12.02;;;;;;;;;;4994493;28;20034;-52
2022/03/12 14:13:16;;;;;;;22.38;12.15;;;;;;;;;;4994780;28;20030;-49
2022/03/12 14:15:46;;;;;;;20.95;14.20;;;;;;;;;;4993360;28;21312;-50
2022/03/12 14:18:20;;;;;;;16.73;12.00;;;;;;;;;;4994053;28;20038;-48
2022/03/12 14:20:49;;;;;;;17.23;11.68;;;;;;;;;;4994168;28;20117;-50
2022/03/12 14:23:18;;;;;;;19.13;12.50;;;;;;;;;;4994202;28;20538;-54
2022/03/12 14:25:44;;;;;;;22.52;14.25;;;;;;;;;;4994474;28;20039;-53
2022/03/12 14:28:11;;;;;;;20.50;13.40;;;;;;;;;;4993472;28;20081;-50